Terminal Aerodrome Forecast
Issued by NWS Corpus Christi, TX

Home | Current Version | Previous Version | Text Only | Print | Product List | Glossary On
Versions: 1 2 3 4 5 6 7 8 9 10 11 12 13 14 15 16
000
FTUS44 KCRP 290500
TAFVCT
TAF
KVCT 290520Z 2906/3006 18008KT P6SM SKC
     FM291000 18006KT 6SM BR SCT013
     FM291600 18018G29KT P6SM SCT025
     FM300200 17011KT P6SM BKN013=

USA.gov is the U.S. government's official web portal to all federal, state and local government web resources and services.